Aérodrome :







RETROUVEZ-NOUS SUR...

 
LOGIN :

S'inscrire | Disclaimer

   EN    FR    IT 

 









Légende :    VFR   VFR Marginal   IFR   IFR Intensif   IFR Très Intensif
Visi : 
Plafond : 
>= 8 km
>= 3000ft
5 à 8 km
1000 à 3000 ft
1500m à 5 km
500 à 1000 ft
800 à 1500m
200 à 500 ft
< 800m
< 200 ft
Symboles :   Orages  Brouillard  Fortes neiges  Fortes précipitations  Vent > 20 kt






- Altitude de l'aérodrome : 21 ft
- Code IATA : YVM


CYVM - Qikiqtarjuac

DERNIER METAR :
  • 071800Z 21006KT 15SM FEW020 FEW050 OVC080 05/03 A2974 RMK SC1SC1AC6 DIST SH SW SLP072

METARs EXPIRÉS :
  • 071700Z 21007KT 15SM FEW020 SCT055 OVC084 04/03 A2973 RMK SC1SC3AC4 SLP070
  • 071600Z 21008KT 15SM FEW020 SCT070 OVC080 05/03 A2973 RMK SC1AC2AC5 SLP071

TAF TAF CYVM
Valide du 07 à 19h jusqu'au 08 à 07h UTC


071838Z 0719/0807 21006KT P6SM FEW020 SCT050 OVC080
TEMPO 0719/0807 3SM -RA BR SCT008 OVC020
BECMG 0721/0723 34006KT RMK NXT FCST BY 080100Z
FIR CZEG / Amérique du Nord



MET'MAP, la Météo Aéronautique d'un coup d'oeil ! - Copyright ORBIFLY Décembre 2007 - Disclaimer

ORBIFLY MET'MAP TEAM :

Programmation & Développement : Alexandra Zaïnal
Sur une idée originale de : Baudouin d'Aumeries
Assistance à la programmation : Marc-Olivier Méhu
Soutien technique & logistique : Manuel Goepfert

Contact : metmap@orbifly.com




SOURCES & CREDITS :

   NOAA